Time;durP1;ratioP1;P1;durP2;ratioP2;P2;SDS_P1;SDS_P2;PMS_P1;PMS_P2;Temp;Humidity;BMP_temperature;BMP_pressure;BME280_temperature;BME280_humidity;BME280_pressure;Samples;Min_cycle;Max_cycle;Signal;HPM_P1;HPM_P2
2024/01/11 00:01:47;;;;;;;13.25;7.15;;;-4.90;99.90;;;;;;4998838;28;20041;-74
2024/01/11 00:04:13;;;;;;;14.13;6.55;;;-5.00;99.90;;;;;;5021623;28;20117;-74
2024/01/11 00:06:43;;;;;;;14.88;6.93;;;-4.90;99.90;;;;;;5022522;28;20080;-74
2024/01/11 00:09:09;;;;;;;9.23;6.38;;;-5.00;99.90;;;;;;5019269;28;20058;-75
2024/01/11 00:11:34;;;;;;;10.68;4.55;;;-5.00;99.90;;;;;;5034763;28;20117;-75
2024/01/11 00:14:00;;;;;;;14.00;6.65;;;-5.00;99.90;;;;;;5039217;28;20042;-74
2024/01/11 00:16:26;;;;;;;7.32;4.93;;;-5.00;99.90;;;;;;5013598;28;20045;-75
2024/01/11 00:18:52;;;;;;;15.15;6.30;;;-5.00;99.90;;;;;;5003286;28;20041;-74
2024/01/11 00:21:17;;;;;;;21.60;9.23;;;-5.00;99.90;;;;;;5016055;28;20077;-74
2024/01/11 00:23:43;;;;;;;16.52;6.90;;;-5.00;99.90;;;;;;5015529;28;20041;-74
2024/01/11 00:26:11;;;;;;;14.38;5.47;;;-5.10;99.90;;;;;;5022115;28;20087;-74
2024/01/11 00:28:37;;;;;;;4.72;3.17;;;-5.10;99.90;;;;;;5018423;28;20041;-74
2024/01/11 00:31:03;;;;;;;16.52;8.20;;;-5.10;99.90;;;;;;5023753;28;20073;-74
2024/01/11 00:33:29;;;;;;;24.60;8.60;;;-5.00;99.90;;;;;;5001642;28;20088;-74
2024/01/11 00:35:54;;;;;;;12.32;5.97;;;-5.10;99.90;;;;;;5004945;28;20082;-74
2024/01/11 00:38:20;;;;;;;9.75;5.43;;;-5.10;99.90;;;;;;5005949;28;20101;-74
2024/01/11 00:40:46;;;;;;;7.72;5.55;;;-5.10;99.90;;;;;;4990535;28;20041;-74
2024/01/11 00:43:12;;;;;;;21.42;5.95;;;-5.10;99.90;;;;;;5022052;28;20045;-74
2024/01/11 00:45:38;;;;;;;23.80;9.10;;;-5.10;99.90;;;;;;5005778;28;20045;-74
2024/01/11 00:48:04;;;;;;;15.23;6.80;;;-5.10;99.90;;;;;;5005247;28;20184;-74
2024/01/11 00:50:30;;;;;;;12.38;5.60;;;-5.10;99.90;;;;;;5021906;28;20045;-75
2024/01/11 00:52:56;;;;;;;16.33;6.35;;;-5.00;99.90;;;;;;5005451;28;20499;-74
2024/01/11 00:55:21;;;;;;;14.18;6.28;;;-5.00;99.90;;;;;;5037984;28;20045;-74
2024/01/11 00:57:47;;;;;;;25.83;6.20;;;-5.00;99.90;;;;;;5039112;28;20055;-74
2024/01/11 01:00:13;;;;;;;11.80;5.95;;;-5.00;99.90;;;;;;4989959;28;20069;-74
2024/01/11 01:02:40;;;;;;;10.70;5.20;;;-5.00;99.90;;;;;;5038384;28;20064;-74
2024/01/11 01:05:06;;;;;;;15.10;5.57;;;-5.00;99.90;;;;;;5022386;28;20473;-74
2024/01/11 01:07:32;;;;;;;8.07;4.35;;;-5.00;99.90;;;;;;5004202;28;20424;-74
2024/01/11 01:09:58;;;;;;;14.23;6.50;;;-5.00;99.90;;;;;;5034502;28;20065;-74
2024/01/11 01:12:25;;;;;;;18.38;7.10;;;-5.00;99.90;;;;;;5019884;28;20112;-74
2024/01/11 01:14:51;;;;;;;12.80;6.50;;;-5.00;99.90;;;;;;5019852;28;20064;-74
2024/01/11 01:17:17;;;;;;;10.68;5.85;;;-5.10;99.90;;;;;;5030779;28;20140;-74
2024/01/11 01:19:43;;;;;;;18.42;7.45;;;-5.10;99.90;;;;;;5029989;28;20070;-74
2024/01/11 01:22:09;;;;;;;20.05;7.30;;;-5.20;99.90;;;;;;4995392;28;20044;-74
2024/01/11 01:24:35;;;;;;;15.15;5.65;;;-5.20;99.90;;;;;;5020121;28;20045;-74
2024/01/11 01:27:01;;;;;;;15.38;6.68;;;-5.20;99.90;;;;;;5002147;28;20042;-74
2024/01/11 01:29:27;;;;;;;12.07;6.32;;;-5.20;99.90;;;;;;5016590;28;20504;-74
2024/01/11 01:31:53;;;;;;;9.65;7.18;;;-5.20;99.90;;;;;;5037491;28;20570;-74
2024/01/11 01:34:19;;;;;;;11.82;5.57;;;-5.20;99.90;;;;;;5001871;28;20116;-74
2024/01/11 01:36:44;;;;;;;16.52;8.35;;;-5.10;99.90;;;;;;5016350;28;20097;-74
2024/01/11 01:39:10;;;;;;;12.70;5.45;;;-5.20;99.90;;;;;;5006191;28;20077;-74
2024/01/11 01:41:36;;;;;;;11.63;6.32;;;-5.10;99.90;;;;;;5016938;28;20048;-74
2024/01/11 01:44:02;;;;;;;10.55;4.68;;;-5.20;99.90;;;;;;5017789;28;20049;-74
2024/01/11 01:46:28;;;;;;;9.57;4.80;;;-5.20;99.90;;;;;;4992572;28;20037;-74
2024/01/11 01:48:56;;;;;;;11.75;6.25;;;-5.20;99.90;;;;;;5037790;28;20072;-74
2024/01/11 01:51:23;;;;;;;8.88;4.55;;;-5.20;99.90;;;;;;5015350;28;20042;-73
2024/01/11 01:53:52;;;;;;;17.00;6.93;;;-5.20;99.90;;;;;;5018800;28;20124;-74
2024/01/11 01:56:19;;;;;;;16.48;5.63;;;-5.20;99.90;;;;;;5021306;28;20060;-74
2024/01/11 01:58:45;;;;;;;14.65;7.43;;;-5.20;99.90;;;;;;5017312;28;20516;-74
2024/01/11 02:01:12;;;;;;;16.98;8.02;;;-5.20;99.90;;;;;;5031551;28;20042;-73
2024/01/11 02:03:39;;;;;;;9.25;6.07;;;-5.20;99.90;;;;;;5015224;28;20056;-74
2024/01/11 02:06:06;;;;;;;21.98;8.52;;;-5.20;99.90;;;;;;5018530;28;20044;-74
2024/01/11 02:08:32;;;;;;;11.23;6.90;;;-5.20;99.90;;;;;;5000886;28;20041;-74
2024/01/11 02:10:59;;;;;;;17.02;6.47;;;-5.20;99.90;;;;;;5024939;28;20373;-74
2024/01/11 02:13:25;;;;;;;13.85;7.00;;;-5.20;99.90;;;;;;5024258;28;20100;-74
2024/01/11 02:15:51;;;;;;;15.63;6.30;;;-5.30;99.90;;;;;;5009874;28;20112;-74
2024/01/11 02:18:17;;;;;;;12.93;6.55;;;-5.30;99.90;;;;;;5022771;28;20301;-74
2024/01/11 02:20:44;;;;;;;20.85;7.68;;;-5.30;99.90;;;;;;5004787;28;20532;-74
2024/01/11 02:23:17;;;;;;;25.85;8.95;;;-5.30;99.90;;;;;;5006789;28;20038;-76
2024/01/11 02:25:43;;;;;;;19.50;6.18;;;-5.30;99.90;;;;;;5034177;28;20054;-73
2024/01/11 02:28:08;;;;;;;12.95;7.22;;;-5.30;99.90;;;;;;5003045;28;20041;-73
2024/01/11 02:30:34;;;;;;;9.05;4.43;;;-5.40;99.90;;;;;;5039531;28;20616;-73
2024/01/11 02:33:01;;;;;;;18.02;8.63;;;-5.30;99.90;;;;;;5013988;28;20052;-73
2024/01/11 02:35:27;;;;;;;14.52;5.88;;;-5.30;99.90;;;;;;5026264;28;20048;-73
2024/01/11 02:37:54;;;;;;;21.05;6.65;;;-5.30;99.90;;;;;;5023331;28;20044;-73
2024/01/11 02:40:20;;;;;;;14.18;7.20;;;-5.30;99.90;;;;;;5041371;28;20038;-73
2024/01/11 02:42:45;;;;;;;9.13;5.38;;;-5.30;99.90;;;;;;5008132;28;20049;-73
2024/01/11 02:45:14;;;;;;;15.98;7.70;;;-5.40;99.90;;;;;;4992781;28;20076;-73
2024/01/11 02:47:40;;;;;;;11.73;7.45;;;-5.40;99.90;;;;;;5024047;28;20077;-73
2024/01/11 02:50:07;;;;;;;9.98;5.50;;;-5.50;99.90;;;;;;5040272;28;20042;-73
2024/01/11 02:52:33;;;;;;;12.95;7.28;;;-5.50;99.90;;;;;;4992842;28;20044;-73
2024/01/11 02:54:59;;;;;;;12.35;7.85;;;-5.50;99.90;;;;;;5040092;28;20072;-73
2024/01/11 02:57:25;;;;;;;15.48;4.30;;;-5.50;99.90;;;;;;5024401;28;20053;-74
2024/01/11 02:59:51;;;;;;;17.80;6.47;;;-5.50;99.90;;;;;;5040361;28;20034;-74
2024/01/11 03:02:17;;;;;;;20.35;7.95;;;-5.50;99.90;;;;;;5004330;28;20052;-74
2024/01/11 03:04:42;;;;;;;9.23;5.25;;;-5.50;99.90;;;;;;4998397;28;20069;-74
2024/01/11 03:07:08;;;;;;;17.42;7.18;;;-5.50;99.90;;;;;;5038102;28;20045;-74
2024/01/11 03:09:34;;;;;;;13.85;5.90;;;-5.50;99.90;;;;;;5017472;28;20076;-74
2024/01/11 03:12:00;;;;;;;22.20;6.45;;;-5.50;99.90;;;;;;4999487;28;20101;-74
2024/01/11 03:14:26;;;;;;;15.85;6.20;;;-5.50;99.90;;;;;;5021695;28;20052;-74
2024/01/11 03:16:51;;;;;;;7.80;4.50;;;-5.50;99.90;;;;;;5001583;28;20485;-74
2024/01/11 03:19:17;;;;;;;11.43;6.10;;;-5.50;99.90;;;;;;5037773;28;20054;-74
2024/01/11 03:21:46;;;;;;;6.03;4.22;;;-5.40;99.90;;;;;;5001399;28;20042;-74
2024/01/11 03:24:13;;;;;;;13.25;6.25;;;-5.40;99.90;;;;;;5021078;28;20045;-74
2024/01/11 03:26:39;;;;;;;13.90;6.68;;;-5.40;99.90;;;;;;5017141;28;20045;-74
2024/01/11 03:29:05;;;;;;;9.50;4.22;;;-5.40;99.90;;;;;;4987848;28;20504;-74
2024/01/11 03:31:31;;;;;;;15.45;7.18;;;-5.40;99.90;;;;;;5018495;28;20054;-74
2024/01/11 03:33:57;;;;;;;13.65;6.85;;;-5.40;99.90;;;;;;5001916;28;20037;-73
2024/01/11 03:36:27;;;;;;;14.38;5.68;;;-5.40;99.90;;;;;;5023678;28;20048;-74
2024/01/11 03:38:53;;;;;;;10.15;5.55;;;-5.30;99.90;;;;;;5019481;28;20041;-74
2024/01/11 03:41:19;;;;;;;12.25;6.38;;;-5.30;99.90;;;;;;5003640;28;20539;-74
2024/01/11 03:43:44;;;;;;;12.95;5.70;;;-5.30;99.90;;;;;;5023360;28;20362;-74
2024/01/11 03:46:10;;;;;;;7.97;4.88;;;-5.30;99.90;;;;;;5006185;28;20548;-74
2024/01/11 03:48:36;;;;;;;11.02;5.80;;;-5.40;99.90;;;;;;5023532;28;20076;-73
2024/01/11 03:51:02;;;;;;;8.57;5.45;;;-5.30;99.90;;;;;;5006878;28;20053;-74
2024/01/11 03:53:28;;;;;;;13.75;6.13;;;-5.30;99.90;;;;;;5007360;28;20049;-74
2024/01/11 03:55:54;;;;;;;12.05;6.43;;;-5.30;99.90;;;;;;5020958;28;20049;-74
2024/01/11 03:58:19;;;;;;;22.38;7.82;;;-5.30;99.90;;;;;;5037320;28;20073;-73
2024/01/11 04:00:45;;;;;;;11.32;6.43;;;-5.30;99.90;;;;;;5027010;28;20069;-74
2024/01/11 04:03:11;;;;;;;13.93;6.60;;;-5.30;99.90;;;;;;5030693;28;20121;-74
2024/01/11 04:05:36;;;;;;;19.58;7.97;;;-5.40;99.90;;;;;;5027344;28;20030;-73
2024/01/11 04:08:06;;;;;;;12.35;7.70;;;-5.40;99.90;;;;;;5035066;28;20056;-73
2024/01/11 04:10:32;;;;;;;12.85;7.82;;;-5.30;99.90;;;;;;5006046;28;20053;-73
2024/01/11 04:12:58;;;;;;;20.77;7.00;;;-5.30;99.90;;;;;;5023043;28;20077;-74
2024/01/11 04:15:24;;;;;;;13.05;5.85;;;-5.30;99.90;;;;;;5005041;28;20048;-74
2024/01/11 04:17:50;;;;;;;8.35;7.07;;;-5.40;99.90;;;;;;5004013;28;20508;-74
2024/01/11 04:20:15;;;;;;;16.85;7.32;;;-5.40;99.90;;;;;;5004243;28;20179;-74
2024/01/11 04:22:41;;;;;;;12.57;4.88;;;-5.40;99.90;;;;;;5022736;28;20044;-74
2024/01/11 04:25:07;;;;;;;13.63;5.60;;;-5.40;99.90;;;;;;4988306;28;20042;-75
2024/01/11 04:27:33;;;;;;;17.23;6.97;;;-5.40;99.90;;;;;;4999218;28;20049;-74
2024/01/11 04:29:59;;;;;;;13.00;5.07;;;-5.40;99.90;;;;;;5000701;28;20041;-72
2024/01/11 04:32:24;;;;;;;18.40;6.60;;;-5.40;99.90;;;;;;5004087;28;20033;-72
2024/01/11 04:34:50;;;;;;;12.55;5.32;;;-5.40;99.90;;;;;;5037734;28;20114;-72
2024/01/11 04:37:16;;;;;;;19.52;7.80;;;-5.40;99.90;;;;;;5005038;28;20060;-72
2024/01/11 04:39:41;;;;;;;18.67;7.85;;;-5.40;99.90;;;;;;5006564;28;20048;-72
2024/01/11 04:42:07;;;;;;;10.68;5.68;;;-5.40;99.90;;;;;;5005440;28;20049;-72
2024/01/11 04:44:33;;;;;;;17.60;5.93;;;-5.50;99.90;;;;;;5022339;28;20045;-73
2024/01/11 04:46:58;;;;;;;10.77;5.35;;;-5.50;99.90;;;;;;5001388;28;20061;-73
2024/01/11 04:49:24;;;;;;;16.92;6.75;;;-5.40;99.90;;;;;;4999896;28;20099;-73
2024/01/11 04:51:50;;;;;;;18.42;8.35;;;-5.50;99.90;;;;;;5022338;28;20045;-73
2024/01/11 04:54:16;;;;;;;10.43;6.40;;;-5.50;99.90;;;;;;5005856;28;20049;-73
2024/01/11 04:56:41;;;;;;;10.18;5.60;;;-5.50;99.90;;;;;;5005699;28;20052;-74
2024/01/11 04:59:07;;;;;;;10.80;6.32;;;-5.60;99.90;;;;;;5021133;28;20112;-73
2024/01/11 05:01:33;;;;;;;11.77;5.28;;;-5.60;99.90;;;;;;5038991;28;20044;-73
2024/01/11 05:03:58;;;;;;;7.47;4.35;;;-5.50;99.90;;;;;;5038482;28;20053;-73
2024/01/11 05:06:24;;;;;;;14.77;6.32;;;-5.50;99.90;;;;;;5039042;28;20376;-73
2024/01/11 05:08:54;;;;;;;9.88;4.95;;;-5.60;99.90;;;;;;5031049;28;20369;-73
2024/01/11 05:11:22;;;;;;;9.73;4.97;;;-5.60;99.90;;;;;;5020116;28;20034;-73
2024/01/11 05:13:48;;;;;;;12.50;6.75;;;-5.50;99.90;;;;;;5022711;28;20073;-73
2024/01/11 05:16:21;;;;;;;13.85;5.35;;;-5.60;99.90;;;;;;5036619;28;20041;-73
2024/01/11 05:18:47;;;;;;;5.53;4.57;;;-5.70;99.90;;;;;;5005999;28;20049;-72
2024/01/11 05:21:12;;;;;;;18.88;6.97;;;-5.70;99.90;;;;;;5005199;28;20125;-72
2024/01/11 05:23:39;;;;;;;16.55;4.07;;;-5.70;99.90;;;;;;5004016;28;20048;-71
2024/01/11 05:26:05;;;;;;;18.48;7.15;;;-5.70;99.90;;;;;;5022740;28;20073;-72
2024/01/11 05:28:31;;;;;;;13.57;6.20;;;-5.70;99.90;;;;;;5004285;28;20452;-72
2024/01/11 05:30:56;;;;;;;14.95;6.35;;;-5.60;99.90;;;;;;5020120;28;20072;-72
2024/01/11 05:33:22;;;;;;;19.52;8.85;;;-5.60;99.90;;;;;;5034934;28;20164;-72
2024/01/11 05:35:48;;;;;;;15.32;7.15;;;-5.60;99.90;;;;;;5026839;28;20041;-71
2024/01/11 05:38:13;;;;;;;17.08;7.03;;;-5.50;99.90;;;;;;4999249;28;20068;-72
2024/01/11 05:40:39;;;;;;;14.68;6.10;;;-5.50;99.90;;;;;;4996289;28;20073;-72
2024/01/11 05:43:05;;;;;;;20.88;7.45;;;-5.40;99.90;;;;;;4986342;28;20026;-71
2024/01/11 05:45:30;;;;;;;14.40;7.30;;;-5.40;99.90;;;;;;5002121;28;20096;-71
2024/01/11 05:47:56;;;;;;;20.90;7.97;;;-5.40;99.90;;;;;;5017686;28;20037;-72
2024/01/11 05:50:22;;;;;;;24.70;9.70;;;-5.40;99.90;;;;;;5017634;28;20052;-72
2024/01/11 05:52:47;;;;;;;20.15;8.07;;;-5.30;99.90;;;;;;4988056;28;20045;-72
2024/01/11 05:55:13;;;;;;;13.90;7.80;;;-5.30;99.90;;;;;;5025272;28;20051;-72
2024/01/11 05:57:39;;;;;;;20.75;8.73;;;-5.30;99.90;;;;;;4990810;28;20045;-71
2024/01/11 06:00:05;;;;;;;15.07;8.05;;;-5.30;99.90;;;;;;5023998;28;20090;-72
2024/01/11 06:02:31;;;;;;;17.45;6.93;;;-5.30;99.90;;;;;;5004698;28;20133;-72
2024/01/11 06:04:57;;;;;;;13.57;7.82;;;-5.30;99.90;;;;;;5021536;28;20041;-72
2024/01/11 06:07:23;;;;;;;12.73;7.93;;;-5.20;99.90;;;;;;5020430;28;20038;-72
2024/01/11 06:09:49;;;;;;;18.17;7.07;;;-5.20;99.90;;;;;;5008319;28;20045;-72
2024/01/11 06:12:15;;;;;;;23.00;9.65;;;-5.10;99.90;;;;;;5003208;28;20124;-72
2024/01/11 06:14:40;;;;;;;24.08;9.15;;;-5.00;99.90;;;;;;5015428;28;20051;-71
2024/01/11 06:17:06;;;;;;;14.35;8.98;;;-5.00;99.90;;;;;;4997322;28;20049;-72
2024/01/11 06:19:32;;;;;;;18.98;8.68;;;-5.00;99.90;;;;;;5005334;28;20045;-72
2024/01/11 06:21:58;;;;;;;24.85;8.90;;;-4.90;99.90;;;;;;5019688;28;20779;-71
2024/01/11 06:24:24;;;;;;;19.95;8.15;;;-4.80;99.90;;;;;;5023721;28;20113;-71
2024/01/11 06:26:49;;;;;;;23.95;8.60;;;-4.80;99.90;;;;;;4991350;28;20048;-71
2024/01/11 06:29:15;;;;;;;24.90;8.52;;;-4.70;99.90;;;;;;5005683;28;20101;-72
2024/01/11 06:31:41;;;;;;;16.08;7.25;;;-4.60;99.90;;;;;;5019399;28;20469;-71
2024/01/11 06:34:06;;;;;;;31.20;11.10;;;-4.50;99.90;;;;;;5020367;28;20057;-71
2024/01/11 06:36:32;;;;;;;20.33;8.85;;;-4.40;99.90;;;;;;5008521;28;20350;-72
2024/01/11 06:38:58;;;;;;;21.33;9.60;;;-4.30;99.90;;;;;;4992481;28;20071;-72
2024/01/11 06:41:24;;;;;;;19.98;7.90;;;-4.30;99.90;;;;;;5024346;28;20052;-71
2024/01/11 06:43:49;;;;;;;20.58;9.85;;;-4.20;99.90;;;;;;5008944;28;20629;-72
2024/01/11 06:46:21;;;;;;;20.05;8.93;;;-4.10;99.90;;;;;;5004553;28;20050;-71
2024/01/11 06:48:47;;;;;;;12.13;7.18;;;-4.10;99.90;;;;;;5032617;28;20087;-72
2024/01/11 06:51:20;;;;;;;15.73;7.57;;;-4.00;99.90;;;;;;5039590;28;20408;-71
2024/01/11 06:53:46;;;;;;;13.45;8.48;;;-4.00;99.90;;;;;;5024559;28;20408;-72
2024/01/11 06:56:16;;;;;;;21.25;8.63;;;-3.90;99.90;;;;;;5010841;28;20064;-74
2024/01/11 06:58:41;;;;;;;18.73;9.23;;;-3.90;99.90;;;;;;5024266;28;20080;-74
2024/01/11 07:01:07;;;;;;;18.08;7.10;;;-3.80;99.90;;;;;;5008615;28;20044;-74
2024/01/11 07:03:33;;;;;;;14.90;8.55;;;-3.70;99.90;;;;;;5007335;28;20041;-74
2024/01/11 07:05:58;;;;;;;22.92;8.38;;;-3.70;99.90;;;;;;5007759;28;20108;-74
2024/01/11 07:08:24;;;;;;;20.85;8.90;;;-3.70;99.90;;;;;;4991866;28;20041;-70
2024/01/11 07:10:50;;;;;;;24.20;9.10;;;-3.60;99.90;;;;;;5032737;28;20041;-71
2024/01/11 07:13:16;;;;;;;19.17;9.20;;;-3.60;99.90;;;;;;4992143;28;20041;-71
2024/01/11 07:15:44;;;;;;;19.55;8.02;;;-3.50;99.90;;;;;;5038896;28;20137;-72
2024/01/11 07:18:10;;;;;;;21.35;9.88;;;-3.40;99.90;;;;;;5066833;28;20042;-72
2024/01/11 07:20:35;;;;;;;20.95;9.20;;;-3.40;99.90;;;;;;5040109;28;20040;-72
2024/01/11 07:23:01;;;;;;;21.00;7.97;;;-3.30;99.90;;;;;;5003586;28;20052;-72
2024/01/11 07:25:27;;;;;;;31.15;12.63;;;-3.20;99.90;;;;;;5004905;28;20064;-71
2024/01/11 07:27:52;;;;;;;20.17;11.52;;;-3.20;99.90;;;;;;5023609;28;20067;-71
2024/01/11 07:30:18;;;;;;;16.00;8.70;;;-3.20;99.90;;;;;;5022646;28;20088;-71
2024/01/11 07:32:44;;;;;;;22.27;9.52;;;-3.10;99.90;;;;;;5003911;28;20386;-71
2024/01/11 07:35:10;;;;;;;24.58;9.02;;;-3.10;99.90;;;;;;5033338;28;20137;-71
2024/01/11 07:37:39;;;;;;;16.80;8.93;;;-3.00;99.90;;;;;;5006054;28;20065;-72
2024/01/11 07:40:10;;;;;;;21.25;11.55;;;-2.90;99.90;;;;;;4992510;28;20073;-72
2024/01/11 07:42:40;;;;;;;17.05;7.40;;;-2.90;99.90;;;;;;4989401;28;20046;-71
2024/01/11 07:45:07;;;;;;;19.92;9.55;;;-3.00;99.90;;;;;;5004176;28;20037;-71
2024/01/11 07:47:37;;;;;;;24.08;8.80;;;-2.90;99.90;;;;;;5033853;28;20071;-71
2024/01/11 07:50:06;;;;;;;18.92;8.25;;;-2.90;99.90;;;;;;5022215;28;20049;-71
2024/01/11 07:52:33;;;;;;;20.20;7.85;;;-2.90;99.90;;;;;;5008314;28;20048;-71
2024/01/11 07:55:06;;;;;;;22.13;9.38;;;-2.90;99.90;;;;;;4990320;28;20119;-71
2024/01/11 07:57:33;;;;;;;13.52;7.38;;;-2.80;99.90;;;;;;5009524;28;20052;-71
2024/01/11 07:59:59;;;;;;;18.85;10.00;;;-2.70;99.90;;;;;;5005962;28;20374;-71
2024/01/11 08:02:25;;;;;;;20.10;9.45;;;-2.70;99.90;;;;;;4990585;28;20072;-71
2024/01/11 08:04:51;;;;;;;14.50;7.85;;;-2.70;99.90;;;;;;5023115;28;20033;-71
2024/01/11 08:07:17;;;;;;;21.33;9.48;;;-2.70;99.90;;;;;;5020685;28;20048;-71
2024/01/11 08:09:45;;;;;;;24.52;10.02;;;-2.60;99.90;;;;;;5038771;28;20041;-71
2024/01/11 08:12:17;;;;;;;21.70;9.98;;;-2.60;99.90;;;;;;5016806;28;20580;-72
2024/01/11 08:14:43;;;;;;;25.35;10.10;;;-2.60;99.90;;;;;;5023005;28;20065;-71
2024/01/11 08:17:08;;;;;;;23.35;10.20;;;-2.60;99.90;;;;;;5021190;28;20042;-71
2024/01/11 08:19:35;;;;;;;25.73;10.65;;;-2.60;99.90;;;;;;5001748;28;20040;-71
2024/01/11 08:22:01;;;;;;;29.45;10.77;;;-2.50;99.90;;;;;;4998281;28;20045;-71
2024/01/11 08:24:26;;;;;;;33.38;11.98;;;-2.50;99.90;;;;;;5021001;28;20069;-71
2024/01/11 08:26:53;;;;;;;20.75;8.63;;;-2.50;99.90;;;;;;5001545;28;20040;-71
2024/01/11 08:29:19;;;;;;;25.05;9.57;;;-2.40;99.90;;;;;;5020395;28;20339;-72
2024/01/11 08:31:48;;;;;;;24.67;9.43;;;-2.40;99.90;;;;;;5034709;28;20073;-71
2024/01/11 08:34:14;;;;;;;28.15;10.77;;;-2.40;99.90;;;;;;5038259;28;20033;-71
2024/01/11 08:36:39;;;;;;;24.85;9.88;;;-2.30;99.90;;;;;;4989838;28;20091;-71
2024/01/11 08:39:06;;;;;;;22.77;9.52;;;-2.30;99.90;;;;;;5022070;28;20049;-71
2024/01/11 08:41:32;;;;;;;17.30;9.38;;;-2.30;99.90;;;;;;5023425;28;20084;-71
2024/01/11 08:43:58;;;;;;;34.60;11.18;;;-2.20;99.90;;;;;;5007504;28;20471;-71
2024/01/11 08:46:25;;;;;;;25.15;11.43;;;-2.20;99.90;;;;;;5050170;28;20084;-72
2024/01/11 08:48:52;;;;;;;27.98;9.90;;;-2.20;99.90;;;;;;5005725;28;20068;-71
2024/01/11 08:51:18;;;;;;;27.20;12.15;;;-2.10;99.90;;;;;;5004174;28;20033;-71
2024/01/11 08:53:44;;;;;;;17.30;8.75;;;-2.10;99.90;;;;;;5022585;28;20038;-72
2024/01/11 08:56:10;;;;;;;20.25;8.48;;;-2.10;99.90;;;;;;5020398;28;20109;-71
2024/01/11 08:58:36;;;;;;;23.27;11.05;;;-2.10;99.90;;;;;;5015944;28;20041;-71
2024/01/11 09:01:02;;;;;;;38.03;10.93;;;-2.10;99.90;;;;;;5023190;28;20096;-71
2024/01/11 09:03:28;;;;;;;25.63;10.70;;;-2.00;99.90;;;;;;4992222;28;20054;-71
2024/01/11 09:05:56;;;;;;;27.50;12.43;;;-2.00;99.90;;;;;;5032996;28;20501;-71
2024/01/11 09:08:23;;;;;;;26.42;11.30;;;-1.90;99.90;;;;;;5036932;28;20646;-71
2024/01/11 09:10:48;;;;;;;29.63;11.98;;;-1.90;99.90;;;;;;4984963;28;20053;-72
2024/01/11 09:13:15;;;;;;;25.00;11.45;;;-1.90;99.90;;;;;;5022133;28;20041;-71
2024/01/11 09:15:42;;;;;;;31.25;10.60;;;-1.80;99.90;;;;;;5019582;28;20049;-72
2024/01/11 09:18:07;;;;;;;24.73;9.80;;;-1.80;99.90;;;;;;5022618;28;20037;-71
2024/01/11 09:20:35;;;;;;;26.70;9.80;;;-1.70;99.90;;;;;;5021640;28;20049;-71
2024/01/11 09:23:03;;;;;;;25.73;10.80;;;-1.70;99.90;;;;;;5022891;28;20113;-71
2024/01/11 09:25:32;;;;;;;20.95;9.32;;;-1.70;99.90;;;;;;5020934;28;20391;-71
2024/01/11 09:27:58;;;;;;;28.63;11.85;;;-1.60;99.90;;;;;;5005962;28;20101;-71
2024/01/11 09:30:24;;;;;;;30.45;14.35;;;-1.60;99.90;;;;;;5039425;28;20049;-71
2024/01/11 09:32:49;;;;;;;21.88;8.30;;;-1.60;99.90;;;;;;5019751;28;20531;-71
2024/01/11 09:35:15;;;;;;;27.35;9.73;;;-1.50;99.90;;;;;;5024341;28;20044;-71
2024/01/11 09:37:42;;;;;;;26.80;10.38;;;-1.50;99.90;;;;;;5019507;28;20038;-71
2024/01/11 09:40:10;;;;;;;38.03;13.13;;;-1.40;99.90;;;;;;5004053;28;20068;-71
2024/01/11 09:42:37;;;;;;;26.48;10.80;;;-1.40;99.90;;;;;;5003172;28;20069;-71
2024/01/11 09:45:18;;;;;;;23.08;11.68;;;-1.40;99.90;;;;;;5005737;28;20397;-71
2024/01/11 09:47:48;;;;;;;26.77;11.38;;;-1.30;99.90;;;;;;5018893;28;20077;-71
2024/01/11 09:50:17;;;;;;;18.08;10.20;;;-1.30;99.90;;;;;;5027559;28;20037;-71
2024/01/11 09:52:48;;;;;;;19.90;10.50;;;-1.20;99.90;;;;;;5009286;28;20046;-71
2024/01/11 09:55:14;;;;;;;26.97;11.97;;;-1.20;99.90;;;;;;5021628;28;20411;-71
2024/01/11 09:57:45;;;;;;;30.15;10.38;;;-1.10;99.90;;;;;;5022451;28;20093;-71
2024/01/11 10:00:16;;;;;;;26.00;8.95;;;-1.10;99.90;;;;;;5018331;28;20060;-71
2024/01/11 10:02:42;;;;;;;24.27;10.15;;;-1.10;99.90;;;;;;5017991;28;20044;-72
2024/01/11 10:05:08;;;;;;;22.88;9.93;;;-1.00;99.90;;;;;;5036633;28;20069;-71
2024/01/11 10:07:34;;;;;;;29.10;10.40;;;-1.00;99.90;;;;;;5004705;28;20050;-72
2024/01/11 10:10:00;;;;;;;27.25;10.85;;;-0.90;99.90;;;;;;4999603;28;20042;-71
2024/01/11 10:12:27;;;;;;;24.45;11.45;;;-0.80;99.90;;;;;;5015599;28;20045;-71
2024/01/11 10:14:54;;;;;;;24.30;10.65;;;-0.80;99.90;;;;;;5016090;28;20135;-72
2024/01/11 10:17:20;;;;;;;25.98;9.65;;;-0.70;99.90;;;;;;5016870;28;20046;-72
2024/01/11 10:19:46;;;;;;;24.05;10.25;;;-0.70;99.90;;;;;;5015366;28;20091;-71
2024/01/11 10:22:17;;;;;;;30.85;12.30;;;-0.60;99.90;;;;;;5005157;28;20049;-71
2024/01/11 10:24:43;;;;;;;17.58;9.15;;;-0.60;99.90;;;;;;5035552;28;20053;-71
2024/01/11 10:27:09;;;;;;;21.70;10.85;;;-0.60;99.90;;;;;;5043313;28;20041;-71
2024/01/11 10:29:38;;;;;;;27.48;12.93;;;-0.60;99.90;;;;;;5034023;28;20112;-72
2024/01/11 10:32:04;;;;;;;37.50;13.68;;;-0.50;99.90;;;;;;5023001;28;20053;-71
2024/01/11 10:34:30;;;;;;;34.78;13.55;;;-0.40;99.90;;;;;;5041602;28;20432;-71
2024/01/11 10:36:56;;;;;;;25.92;11.48;;;-0.40;99.90;;;;;;5004573;28;20042;-72
2024/01/11 10:39:26;;;;;;;28.95;11.15;;;-0.30;99.90;;;;;;5039261;28;20090;-71
2024/01/11 10:42:07;;;;;;;25.38;10.95;;;-0.30;99.90;;;;;;5009110;28;20440;-71
2024/01/11 10:44:35;;;;;;;29.50;13.10;;;-0.30;99.90;;;;;;5038850;28;20391;-72
2024/01/11 10:47:05;;;;;;;32.78;9.80;;;-0.20;99.90;;;;;;5041315;28;20179;-71
2024/01/11 10:49:33;;;;;;;22.52;9.80;;;-0.20;99.90;;;;;;5032838;28;20042;-71
2024/01/11 10:52:01;;;;;;;28.98;11.23;;;-0.20;99.90;;;;;;5035921;28;20052;-71
2024/01/11 10:54:28;;;;;;;30.48;9.27;;;0.00;99.90;;;;;;5036033;28;20100;-71
2024/01/11 10:56:55;;;;;;;22.08;8.88;;;0.00;99.90;;;;;;5043077;28;20041;-71
2024/01/11 10:59:25;;;;;;;31.13;12.65;;;0.00;99.90;;;;;;5034725;28;20038;-71
2024/01/11 11:01:55;;;;;;;24.83;10.95;;;0.10;99.90;;;;;;5014860;28;20046;-72
2024/01/11 11:04:22;;;;;;;29.40;11.32;;;0.10;99.90;;;;;;5030771;28;20132;-71
2024/01/11 11:06:51;;;;;;;35.42;14.05;;;0.10;99.90;;;;;;5004013;28;20040;-71
2024/01/11 11:09:18;;;;;;;32.70;10.20;;;0.20;99.90;;;;;;5027511;28;20579;-71
2024/01/11 11:11:45;;;;;;;21.45;9.50;;;0.20;99.90;;;;;;5000942;28;20057;-71
2024/01/11 11:14:14;;;;;;;19.92;8.70;;;0.20;99.90;;;;;;5021917;28;20052;-71
2024/01/11 11:16:40;;;;;;;28.40;13.60;;;0.20;99.90;;;;;;5020880;28;20045;-71
2024/01/11 11:19:06;;;;;;;25.48;11.35;;;0.30;99.90;;;;;;4991572;28;20099;-71
2024/01/11 11:21:32;;;;;;;26.73;11.70;;;0.30;99.90;;;;;;5008193;28;20132;-71
2024/01/11 11:23:58;;;;;;;21.13;9.30;;;0.40;99.90;;;;;;5040254;28;20060;-71
2024/01/11 11:26:26;;;;;;;26.58;10.32;;;0.30;99.90;;;;;;5018956;28;20137;-72
2024/01/11 11:28:52;;;;;;;36.00;10.98;;;0.40;99.90;;;;;;5016837;28;20052;-72
2024/01/11 11:31:37;;;;;;;24.90;12.15;;;0.40;99.90;;;;;;5005823;28;20034;-72
2024/01/11 11:34:06;;;;;;;20.52;9.38;;;0.40;99.90;;;;;;5016322;28;20357;-71
2024/01/11 11:36:34;;;;;;;21.63;8.85;;;0.40;99.90;;;;;;5032600;28;20050;-72
2024/01/11 11:39:01;;;;;;;26.13;11.60;;;0.50;99.90;;;;;;5042440;28;20042;-71
2024/01/11 11:41:27;;;;;;;24.88;9.57;;;0.50;99.90;;;;;;5022956;28;20041;-71
2024/01/11 11:43:53;;;;;;;23.00;9.23;;;0.50;99.90;;;;;;5028583;28;20065;-71
2024/01/11 11:46:22;;;;;;;29.08;10.35;;;0.60;99.90;;;;;;5007613;28;20045;-71
2024/01/11 11:48:51;;;;;;;36.08;11.35;;;0.60;99.90;;;;;;5035739;28;20037;-71
2024/01/11 11:51:21;;;;;;;25.30;8.82;;;0.60;99.90;;;;;;5012416;28;20037;-71
2024/01/11 11:53:48;;;;;;;24.45;10.40;;;0.70;99.90;;;;;;5035228;28;20049;-71
2024/01/11 11:56:16;;;;;;;20.33;9.20;;;0.60;99.90;;;;;;5034775;28;20046;-71
2024/01/11 11:58:43;;;;;;;27.35;9.20;;;0.70;99.90;;;;;;5033909;28;20547;-71
2024/01/11 12:01:09;;;;;;;29.05;9.93;;;0.70;99.90;;;;;;5034641;28;20041;-71
2024/01/11 12:03:41;;;;;;;23.95;10.55;;;0.70;99.90;;;;;;5018025;28;20056;-71
2024/01/11 12:06:09;;;;;;;26.38;9.43;;;0.80;99.90;;;;;;5017208;28;20088;-71
2024/01/11 12:08:36;;;;;;;22.15;9.15;;;0.80;99.90;;;;;;5033558;28;20045;-71
2024/01/11 12:11:02;;;;;;;26.85;10.00;;;0.80;99.90;;;;;;5017393;28;20052;-71
2024/01/11 12:13:28;;;;;;;22.83;9.30;;;0.80;99.90;;;;;;5018663;28;20512;-71
2024/01/11 12:15:55;;;;;;;23.27;8.70;;;0.90;99.90;;;;;;5000238;28;20041;-71
2024/01/11 12:18:21;;;;;;;16.92;8.45;;;0.90;99.90;;;;;;5018339;28;20666;-71
2024/01/11 12:20:47;;;;;;;21.25;9.38;;;1.00;99.90;;;;;;5017016;28;20045;-71
2024/01/11 12:23:16;;;;;;;31.15;8.75;;;1.00;99.90;;;;;;5048872;28;20046;-71
2024/01/11 12:25:41;;;;;;;25.77;9.07;;;1.00;99.90;;;;;;5007455;28;20049;-71
2024/01/11 12:28:07;;;;;;;18.45;8.60;;;1.10;99.90;;;;;;5039171;28;20136;-71
2024/01/11 12:30:33;;;;;;;25.13;8.95;;;1.10;99.90;;;;;;4988093;28;20041;-71
2024/01/11 12:33:03;;;;;;;22.75;8.20;;;1.10;99.90;;;;;;5032505;28;20076;-71